sensor_id;sensor_type;location;lat;lon;timestamp;temperature;humidity
21039;DHT22;10678;51.002;4.786;2023-06-10T00:01:24;22.60;99.90
21039;DHT22;10678;51.002;4.786;2023-06-10T00:03:52;22.60;99.90
21039;DHT22;10678;51.002;4.786;2023-06-10T00:06:18;22.60;99.90
21039;DHT22;10678;51.002;4.786;2023-06-10T00:08:44;22.50;99.90
21039;DHT22;10678;51.002;4.786;2023-06-10T00:11:12;22.50;99.90
21039;DHT22;10678;51.002;4.786;2023-06-10T00:13:38;22.50;99.90
21039;DHT22;10678;51.002;4.786;2023-06-10T00:16:04;22.50;99.90
21039;DHT22;10678;51.002;4.786;2023-06-10T00:18:29;22.40;99.90
21039;DHT22;10678;51.002;4.786;2023-06-10T00:20:57;22.40;99.90
21039;DHT22;10678;51.002;4.786;2023-06-10T00:23:29;22.40;99.90
21039;DHT22;10678;51.002;4.786;2023-06-10T00:25:58;22.40;99.90
21039;DHT22;10678;51.002;4.786;2023-06-10T00:28:24;22.40;99.90
21039;DHT22;10678;51.002;4.786;2023-06-10T00:30:51;22.40;99.90
21039;DHT22;10678;51.002;4.786;2023-06-10T00:33:16;22.40;99.90
21039;DHT22;10678;51.002;4.786;2023-06-10T00:35:42;22.40;99.90
21039;DHT22;10678;51.002;4.786;2023-06-10T00:38:07;22.40;99.90
21039;DHT22;10678;51.002;4.786;2023-06-10T00:40:39;22.30;99.90
21039;DHT22;10678;51.002;4.786;2023-06-10T00:43:04;22.30;99.90
21039;DHT22;10678;51.002;4.786;2023-06-10T00:45:31;22.30;99.90
21039;DHT22;10678;51.002;4.786;2023-06-10T00:47:57;22.30;99.90
21039;DHT22;10678;51.002;4.786;2023-06-10T00:50:23;22.20;99.90
21039;DHT22;10678;51.002;4.786;2023-06-10T00:52:48;22.10;99.90
21039;DHT22;10678;51.002;4.786;2023-06-10T00:55:17;22.20;99.90
21039;DHT22;10678;51.002;4.786;2023-06-10T00:57:45;22.10;99.90
21039;DHT22;10678;51.002;4.786;2023-06-10T01:00:11;22.10;99.90
21039;DHT22;10678;51.002;4.786;2023-06-10T01:02:38;22.10;99.90
21039;DHT22;10678;51.002;4.786;2023-06-10T01:05:04;22.00;99.90
21039;DHT22;10678;51.002;4.786;2023-06-10T01:07:34;22.00;99.90
21039;DHT22;10678;51.002;4.786;2023-06-10T01:15:05;21.90;99.90
21039;DHT22;10678;51.002;4.786;2023-06-10T01:17:31;21.90;99.90
21039;DHT22;10678;51.002;4.786;2023-06-10T01:19:57;21.90;99.90
21039;DHT22;10678;51.002;4.786;2023-06-10T01:22:27;21.90;99.90
21039;DHT22;10678;51.002;4.786;2023-06-10T01:24:55;21.80;99.90
21039;DHT22;10678;51.002;4.786;2023-06-10T01:27:26;21.80;99.90
21039;DHT22;10678;51.002;4.786;2023-06-10T01:29:59;21.80;99.90
21039;DHT22;10678;51.002;4.786;2023-06-10T01:32:40;21.70;99.90
21039;DHT22;10678;51.002;4.786;2023-06-10T01:35:08;21.70;99.90
21039;DHT22;10678;51.002;4.786;2023-06-10T01:37:34;21.60;99.90
21039;DHT22;10678;51.002;4.786;2023-06-10T01:40:01;21.50;99.90
21039;DHT22;10678;51.002;4.786;2023-06-10T01:42:31;21.50;99.90
21039;DHT22;10678;51.002;4.786;2023-06-10T01:44:58;21.40;99.90
21039;DHT22;10678;51.002;4.786;2023-06-10T01:47:23;21.50;99.90
21039;DHT22;10678;51.002;4.786;2023-06-10T01:49:49;21.40;99.90
21039;DHT22;10678;51.002;4.786;2023-06-10T01:52:15;21.40;99.90
21039;DHT22;10678;51.002;4.786;2023-06-10T01:54:41;21.40;99.90
21039;DHT22;10678;51.002;4.786;2023-06-10T01:57:06;21.30;99.90
21039;DHT22;10678;51.002;4.786;2023-06-10T01:59:32;21.20;99.90
21039;DHT22;10678;51.002;4.786;2023-06-10T02:01:58;21.30;99.90
21039;DHT22;10678;51.002;4.786;2023-06-10T02:04:23;21.30;99.90
21039;DHT22;10678;51.002;4.786;2023-06-10T02:06:49;21.30;99.90
21039;DHT22;10678;51.002;4.786;2023-06-10T02:09:15;21.20;99.90
21039;DHT22;10678;51.002;4.786;2023-06-10T02:11:41;21.20;99.90
21039;DHT22;10678;51.002;4.786;2023-06-10T02:14:07;21.20;99.90
21039;DHT22;10678;51.002;4.786;2023-06-10T02:16:32;21.20;99.90
21039;DHT22;10678;51.002;4.786;2023-06-10T02:18:58;21.20;99.90
21039;DHT22;10678;51.002;4.786;2023-06-10T02:21:25;21.20;99.90
21039;DHT22;10678;51.002;4.786;2023-06-10T02:23:51;21.10;99.90
21039;DHT22;10678;51.002;4.786;2023-06-10T02:26:17;21.10;99.90
21039;DHT22;10678;51.002;4.786;2023-06-10T02:28:43;21.10;99.90
21039;DHT22;10678;51.002;4.786;2023-06-10T02:31:08;21.00;99.90
21039;DHT22;10678;51.002;4.786;2023-06-10T02:33:34;21.00;99.90
21039;DHT22;10678;51.002;4.786;2023-06-10T02:36:00;21.00;99.90
21039;DHT22;10678;51.002;4.786;2023-06-10T02:38:25;21.00;99.90
21039;DHT22;10678;51.002;4.786;2023-06-10T02:40:51;21.00;99.90
21039;DHT22;10678;51.002;4.786;2023-06-10T02:43:17;20.90;99.90
21039;DHT22;10678;51.002;4.786;2023-06-10T02:45:42;20.90;99.90
21039;DHT22;10678;51.002;4.786;2023-06-10T02:48:08;20.90;99.90
21039;DHT22;10678;51.002;4.786;2023-06-10T02:50:34;20.90;99.90
21039;DHT22;10678;51.002;4.786;2023-06-10T02:52:59;20.80;99.90
21039;DHT22;10678;51.002;4.786;2023-06-10T02:55:25;20.80;99.90
21039;DHT22;10678;51.002;4.786;2023-06-10T02:57:52;20.70;99.90
21039;DHT22;10678;51.002;4.786;2023-06-10T03:00:19;20.70;99.90
21039;DHT22;10678;51.002;4.786;2023-06-10T03:02:45;20.60;99.90
21039;DHT22;10678;51.002;4.786;2023-06-10T03:05:11;20.60;99.90
21039;DHT22;10678;51.002;4.786;2023-06-10T03:07:38;20.70;99.90
21039;DHT22;10678;51.002;4.786;2023-06-10T03:10:06;20.60;99.90
21039;DHT22;10678;51.002;4.786;2023-06-10T03:12:32;20.60;99.90
21039;DHT22;10678;51.002;4.786;2023-06-10T03:14:57;20.60;99.90
21039;DHT22;10678;51.002;4.786;2023-06-10T03:17:23;20.50;99.90
21039;DHT22;10678;51.002;4.786;2023-06-10T03:19:49;20.50;99.90
21039;DHT22;10678;51.002;4.786;2023-06-10T03:22:15;20.50;99.90
21039;DHT22;10678;51.002;4.786;2023-06-10T03:24:41;20.40;99.90
21039;DHT22;10678;51.002;4.786;2023-06-10T03:27:09;20.40;99.90
21039;DHT22;10678;51.002;4.786;2023-06-10T03:29:36;20.40;99.90
21039;DHT22;10678;51.002;4.786;2023-06-10T03:32:02;20.50;99.90
21039;DHT22;10678;51.002;4.786;2023-06-10T03:34:28;20.40;99.90
21039;DHT22;10678;51.002;4.786;2023-06-10T03:36:53;20.40;99.90
21039;DHT22;10678;51.002;4.786;2023-06-10T03:39:19;20.40;99.90
21039;DHT22;10678;51.002;4.786;2023-06-10T03:41:45;20.40;99.90
21039;DHT22;10678;51.002;4.786;2023-06-10T03:44:10;20.30;99.90
21039;DHT22;10678;51.002;4.786;2023-06-10T03:46:36;20.30;99.90
21039;DHT22;10678;51.002;4.786;2023-06-10T03:49:02;20.30;99.90
21039;DHT22;10678;51.002;4.786;2023-06-10T03:51:29;20.30;99.90
21039;DHT22;10678;51.002;4.786;2023-06-10T03:53:55;20.30;99.90
21039;DHT22;10678;51.002;4.786;2023-06-10T03:56:21;20.30;99.90
21039;DHT22;10678;51.002;4.786;2023-06-10T03:58:46;20.20;99.90
21039;DHT22;10678;51.002;4.786;2023-06-10T04:01:12;20.30;99.90
21039;DHT22;10678;51.002;4.786;2023-06-10T04:03:43;20.20;99.90
21039;DHT22;10678;51.002;4.786;2023-06-10T04:06:09;20.30;99.90
21039;DHT22;10678;51.002;4.786;2023-06-10T04:08:34;20.30;99.90
21039;DHT22;10678;51.002;4.786;2023-06-10T04:11:01;20.30;99.90
21039;DHT22;10678;51.002;4.786;2023-06-10T04:13:27;20.20;99.90
21039;DHT22;10678;51.002;4.786;2023-06-10T04:15:53;20.20;99.90
21039;DHT22;10678;51.002;4.786;2023-06-10T04:18:20;20.30;99.90
21039;DHT22;10678;51.002;4.786;2023-06-10T04:20:47;20.20;99.90
21039;DHT22;10678;51.002;4.786;2023-06-10T04:23:12;20.30;99.90
21039;DHT22;10678;51.002;4.786;2023-06-10T04:25:38;20.30;99.90
21039;DHT22;10678;51.002;4.786;2023-06-10T04:28:04;20.20;99.90
21039;DHT22;10678;51.002;4.786;2023-06-10T04:30:29;20.20;99.90
21039;DHT22;10678;51.002;4.786;2023-06-10T04:32:56;20.20;99.90
21039;DHT22;10678;51.002;4.786;2023-06-10T04:35:22;20.30;99.90
21039;DHT22;10678;51.002;4.786;2023-06-10T04:37:48;20.20;99.90
21039;DHT22;10678;51.002;4.786;2023-06-10T04:40:13;20.20;99.90
21039;DHT22;10678;51.002;4.786;2023-06-10T04:42:41;20.20;99.90
21039;DHT22;10678;51.002;4.786;2023-06-10T04:45:07;20.30;99.90
21039;DHT22;10678;51.002;4.786;2023-06-10T04:47:33;20.30;99.90
21039;DHT22;10678;51.002;4.786;2023-06-10T04:50:00;20.30;99.90
21039;DHT22;10678;51.002;4.786;2023-06-10T04:52:26;20.30;99.90
21039;DHT22;10678;51.002;4.786;2023-06-10T04:54:53;20.30;99.90
21039;DHT22;10678;51.002;4.786;2023-06-10T04:57:19;20.40;99.90
21039;DHT22;10678;51.002;4.786;2023-06-10T04:59:46;20.40;99.90
21039;DHT22;10678;51.002;4.786;2023-06-10T05:02:11;20.50;99.90
21039;DHT22;10678;51.002;4.786;2023-06-10T05:04:37;20.50;99.90
21039;DHT22;10678;51.002;4.786;2023-06-10T05:07:02;20.50;99.90
21039;DHT22;10678;51.002;4.786;2023-06-10T05:09:29;20.60;99.90
21039;DHT22;10678;51.002;4.786;2023-06-10T05:11:55;20.60;99.90
21039;DHT22;10678;51.002;4.786;2023-06-10T05:14:21;20.70;99.90
21039;DHT22;10678;51.002;4.786;2023-06-10T05:16:47;20.70;99.90
21039;DHT22;10678;51.002;4.786;2023-06-10T05:19:13;20.70;99.90
21039;DHT22;10678;51.002;4.786;2023-06-10T05:21:38;20.80;99.90
21039;DHT22;10678;51.002;4.786;2023-06-10T05:24:04;20.90;99.90
21039;DHT22;10678;51.002;4.786;2023-06-10T05:26:30;21.00;99.90
21039;DHT22;10678;51.002;4.786;2023-06-10T05:28:58;21.00;99.90
21039;DHT22;10678;51.002;4.786;2023-06-10T05:31:24;21.10;99.90
21039;DHT22;10678;51.002;4.786;2023-06-10T05:33:49;21.20;99.90
21039;DHT22;10678;51.002;4.786;2023-06-10T05:36:15;21.40;99.90
21039;DHT22;10678;51.002;4.786;2023-06-10T05:38:41;21.40;99.90
21039;DHT22;10678;51.002;4.786;2023-06-10T05:41:06;21.50;99.90
21039;DHT22;10678;51.002;4.786;2023-06-10T05:43:32;21.50;99.90
21039;DHT22;10678;51.002;4.786;2023-06-10T05:45:57;21.60;99.90
21039;DHT22;10678;51.002;4.786;2023-06-10T05:48:23;21.80;99.90
21039;DHT22;10678;51.002;4.786;2023-06-10T05:50:49;21.90;99.90
21039;DHT22;10678;51.002;4.786;2023-06-10T05:53:15;22.00;99.90
21039;DHT22;10678;51.002;4.786;2023-06-10T05:55:42;22.10;99.90
21039;DHT22;10678;51.002;4.786;2023-06-10T05:58:08;22.20;99.90
21039;DHT22;10678;51.002;4.786;2023-06-10T06:00:34;22.40;99.90
21039;DHT22;10678;51.002;4.786;2023-06-10T06:03:00;22.60;99.90
21039;DHT22;10678;51.002;4.786;2023-06-10T06:05:26;22.80;99.90
21039;DHT22;10678;51.002;4.786;2023-06-10T06:07:52;23.00;99.90
21039;DHT22;10678;51.002;4.786;2023-06-10T06:10:18;23.30;99.90
21039;DHT22;10678;51.002;4.786;2023-06-10T06:12:44;23.30;99.90
21039;DHT22;10678;51.002;4.786;2023-06-10T06:15:11;23.40;99.90
21039;DHT22;10678;51.002;4.786;2023-06-10T06:17:36;23.70;99.90
21039;DHT22;10678;51.002;4.786;2023-06-10T06:20:03;24.00;99.90
21039;DHT22;10678;51.002;4.786;2023-06-10T06:22:29;24.10;99.90
21039;DHT22;10678;51.002;4.786;2023-06-10T06:24:54;24.30;99.90
21039;DHT22;10678;51.002;4.786;2023-06-10T06:27:20;24.50;99.90
21039;DHT22;10678;51.002;4.786;2023-06-10T06:29:46;24.70;99.90
21039;DHT22;10678;51.002;4.786;2023-06-10T06:32:12;24.90;99.90
21039;DHT22;10678;51.002;4.786;2023-06-10T06:34:38;25.00;99.90
21039;DHT22;10678;51.002;4.786;2023-06-10T06:37:03;25.40;99.90
21039;DHT22;10678;51.002;4.786;2023-06-10T06:39:29;25.50;99.90
21039;DHT22;10678;51.002;4.786;2023-06-10T06:41:55;25.60;99.90
21039;DHT22;10678;51.002;4.786;2023-06-10T06:44:21;25.80;99.90
21039;DHT22;10678;51.002;4.786;2023-06-10T06:46:46;26.10;99.90
21039;DHT22;10678;51.002;4.786;2023-06-10T06:49:12;26.20;99.90
21039;DHT22;10678;51.002;4.786;2023-06-10T06:51:37;26.50;99.90
21039;DHT22;10678;51.002;4.786;2023-06-10T06:54:03;26.50;99.90
21039;DHT22;10678;51.002;4.786;2023-06-10T06:56:31;26.80;99.90
21039;DHT22;10678;51.002;4.786;2023-06-10T06:58:56;27.00;99.90
21039;DHT22;10678;51.002;4.786;2023-06-10T07:01:22;27.00;99.90
21039;DHT22;10678;51.002;4.786;2023-06-10T07:03:47;27.20;99.90
21039;DHT22;10678;51.002;4.786;2023-06-10T07:06:13;27.30;99.90
21039;DHT22;10678;51.002;4.786;2023-06-10T07:08:39;27.50;99.90
21039;DHT22;10678;51.002;4.786;2023-06-10T07:11:04;27.50;99.90
21039;DHT22;10678;51.002;4.786;2023-06-10T07:13:30;27.60;99.90
21039;DHT22;10678;51.002;4.786;2023-06-10T07:15:56;27.80;99.90
21039;DHT22;10678;51.002;4.786;2023-06-10T07:18:21;27.90;99.90
21039;DHT22;10678;51.002;4.786;2023-06-10T07:20:47;28.00;99.90
21039;DHT22;10678;51.002;4.786;2023-06-10T07:23:13;28.10;99.90
21039;DHT22;10678;51.002;4.786;2023-06-10T07:25:38;28.40;99.90
21039;DHT22;10678;51.002;4.786;2023-06-10T07:28:04;28.70;99.90
21039;DHT22;10678;51.002;4.786;2023-06-10T07:30:29;28.90;99.90
21039;DHT22;10678;51.002;4.786;2023-06-10T07:32:55;29.20;99.90
21039;DHT22;10678;51.002;4.786;2023-06-10T07:35:21;29.50;99.90
21039;DHT22;10678;51.002;4.786;2023-06-10T07:37:47;29.70;99.90
21039;DHT22;10678;51.002;4.786;2023-06-10T07:40:13;29.90;99.90
21039;DHT22;10678;51.002;4.786;2023-06-10T07:42:38;30.10;99.90
21039;DHT22;10678;51.002;4.786;2023-06-10T07:45:04;30.40;99.90
21039;DHT22;10678;51.002;4.786;2023-06-10T07:47:32;30.70;99.90
21039;DHT22;10678;51.002;4.786;2023-06-10T07:49:58;31.00;98.90
21039;DHT22;10678;51.002;4.786;2023-06-10T07:52:24;31.10;99.90
21039;DHT22;10678;51.002;4.786;2023-06-10T07:54:51;31.30;99.90
21039;DHT22;10678;51.002;4.786;2023-06-10T07:57:18;31.50;96.70
21039;DHT22;10678;51.002;4.786;2023-06-10T07:59:44;31.90;96.80
21039;DHT22;10678;51.002;4.786;2023-06-10T08:02:10;32.20;93.80
21039;DHT22;10678;51.002;4.786;2023-06-10T08:04:35;32.50;93.60
21039;DHT22;10678;51.002;4.786;2023-06-10T08:07:02;32.90;94.90
21039;DHT22;10678;51.002;4.786;2023-06-10T08:09:28;33.20;90.90
21039;DHT22;10678;51.002;4.786;2023-06-10T08:11:54;33.60;90.80
21039;DHT22;10678;51.002;4.786;2023-06-10T08:14:21;33.90;91.20
21039;DHT22;10678;51.002;4.786;2023-06-10T08:16:46;34.30;91.90
21039;DHT22;10678;51.002;4.786;2023-06-10T08:19:12;34.70;84.80
21039;DHT22;10678;51.002;4.786;2023-06-10T08:21:38;34.90;84.90
21039;DHT22;10678;51.002;4.786;2023-06-10T08:24:06;35.20;84.00
21039;DHT22;10678;51.002;4.786;2023-06-10T08:26:31;35.40;82.80
21039;DHT22;10678;51.002;4.786;2023-06-10T08:28:57;35.80;84.30
21039;DHT22;10678;51.002;4.786;2023-06-10T08:31:23;36.00;78.40
21039;DHT22;10678;51.002;4.786;2023-06-10T08:33:48;36.30;78.00
21039;DHT22;10678;51.002;4.786;2023-06-10T08:36:14;36.70;81.40
21039;DHT22;10678;51.002;4.786;2023-06-10T08:38:40;37.30;77.70
21039;DHT22;10678;51.002;4.786;2023-06-10T08:41:06;37.70;71.30
21039;DHT22;10678;51.002;4.786;2023-06-10T08:43:42;38.30;70.90
21039;DHT22;10678;51.002;4.786;2023-06-10T08:46:09;38.70;69.60
21039;DHT22;10678;51.002;4.786;2023-06-10T08:48:39;39.10;69.70
21039;DHT22;10678;51.002;4.786;2023-06-10T08:51:08;39.70;66.20
21039;DHT22;10678;51.002;4.786;2023-06-10T08:53:37;40.10;64.10
21039;DHT22;10678;51.002;4.786;2023-06-10T08:56:04;40.10;59.50
21039;DHT22;10678;51.002;4.786;2023-06-10T08:58:32;40.30;58.10
21039;DHT22;10678;51.002;4.786;2023-06-10T09:01:07;40.70;57.20
21039;DHT22;10678;51.002;4.786;2023-06-10T09:03:35;41.10;56.30
21039;DHT22;10678;51.002;4.786;2023-06-10T09:06:04;41.10;57.60
21039;DHT22;10678;51.002;4.786;2023-06-10T09:08:30;41.50;57.30
21039;DHT22;10678;51.002;4.786;2023-06-10T09:10:57;42.00;54.60
21039;DHT22;10678;51.002;4.786;2023-06-10T09:13:24;42.30;52.20
21039;DHT22;10678;51.002;4.786;2023-06-10T09:15:49;42.50;54.80
21039;DHT22;10678;51.002;4.786;2023-06-10T09:18:16;42.70;52.10
21039;DHT22;10678;51.002;4.786;2023-06-10T09:20:43;43.40;50.70
21039;DHT22;10678;51.002;4.786;2023-06-10T09:23:09;43.40;53.20
21039;DHT22;10678;51.002;4.786;2023-06-10T09:25:36;43.90;50.80
21039;DHT22;10678;51.002;4.786;2023-06-10T09:28:03;44.30;48.30
21039;DHT22;10678;51.002;4.786;2023-06-10T09:30:30;44.60;48.80
21039;DHT22;10678;51.002;4.786;2023-06-10T09:32:58;45.00;47.90
21039;DHT22;10678;51.002;4.786;2023-06-10T09:35:25;45.00;48.60
21039;DHT22;10678;51.002;4.786;2023-06-10T09:37:52;45.50;45.30
21039;DHT22;10678;51.002;4.786;2023-06-10T09:40:19;45.80;42.80
21039;DHT22;10678;51.002;4.786;2023-06-10T09:42:44;45.80;43.40
21039;DHT22;10678;51.002;4.786;2023-06-10T09:45:10;45.70;43.90
21039;DHT22;10678;51.002;4.786;2023-06-10T09:47:36;46.00;44.00
21039;DHT22;10678;51.002;4.786;2023-06-10T09:50:02;46.10;45.40
21039;DHT22;10678;51.002;4.786;2023-06-10T09:52:29;46.50;40.70
21039;DHT22;10678;51.002;4.786;2023-06-10T09:55:00;46.60;41.10
21039;DHT22;10678;51.002;4.786;2023-06-10T09:57:26;46.60;44.20
21039;DHT22;10678;51.002;4.786;2023-06-10T09:59:55;46.50;39.90
21039;DHT22;10678;51.002;4.786;2023-06-10T10:02:21;46.30;39.50
21039;DHT22;10678;51.002;4.786;2023-06-10T10:04:47;46.20;40.90
21039;DHT22;10678;51.002;4.786;2023-06-10T10:07:14;46.40;41.40
21039;DHT22;10678;51.002;4.786;2023-06-10T10:09:40;46.60;39.70
21039;DHT22;10678;51.002;4.786;2023-06-10T10:12:10;46.30;40.90
21039;DHT22;10678;51.002;4.786;2023-06-10T10:14:37;46.10;40.20
21039;DHT22;10678;51.002;4.786;2023-06-10T10:17:10;46.20;40.60
21039;DHT22;10678;51.002;4.786;2023-06-10T10:19:53;46.20;41.70
21039;DHT22;10678;51.002;4.786;2023-06-10T10:22:29;46.10;41.70
21039;DHT22;10678;51.002;4.786;2023-06-10T10:24:57;46.20;40.90
21039;DHT22;10678;51.002;4.786;2023-06-10T10:27:31;46.00;39.60
21039;DHT22;10678;51.002;4.786;2023-06-10T10:29:59;45.60;41.80
21039;DHT22;10678;51.002;4.786;2023-06-10T10:32:58;45.30;40.90
21039;DHT22;10678;51.002;4.786;2023-06-10T10:35:25;44.60;39.60
21039;DHT22;10678;51.002;4.786;2023-06-10T10:37:55;44.10;43.80
21039;DHT22;10678;51.002;4.786;2023-06-10T10:40:21;43.50;43.50
21039;DHT22;10678;51.002;4.786;2023-06-10T10:42:49;43.30;40.70
21039;DHT22;10678;51.002;4.786;2023-06-10T10:45:15;43.30;43.90
21039;DHT22;10678;51.002;4.786;2023-06-10T10:47:41;43.30;41.60
21039;DHT22;10678;51.002;4.786;2023-06-10T10:50:19;43.10;39.40
21039;DHT22;10678;51.002;4.786;2023-06-10T10:55:19;43.50;42.90
21039;DHT22;10678;51.002;4.786;2023-06-10T10:57:44;43.40;41.70
21039;DHT22;10678;51.002;4.786;2023-06-10T11:00:34;43.60;42.60
21039;DHT22;10678;51.002;4.786;2023-06-10T11:05:43;42.40;42.60
21039;DHT22;10678;51.002;4.786;2023-06-10T11:08:13;41.90;42.60
21039;DHT22;10678;51.002;4.786;2023-06-10T11:10:51;42.00;43.10
21039;DHT22;10678;51.002;4.786;2023-06-10T11:13:21;42.10;45.20
21039;DHT22;10678;51.002;4.786;2023-06-10T11:15:49;42.10;41.60
21039;DHT22;10678;51.002;4.786;2023-06-10T11:18:38;41.60;42.40
21039;DHT22;10678;51.002;4.786;2023-06-10T11:21:05;41.90;41.60
21039;DHT22;10678;51.002;4.786;2023-06-10T11:23:34;42.20;44.60
21039;DHT22;10678;51.002;4.786;2023-06-10T11:26:16;42.60;43.10
21039;DHT22;10678;51.002;4.786;2023-06-10T11:31:24;42.70;40.40
21039;DHT22;10678;51.002;4.786;2023-06-10T11:33:56;42.50;42.60
21039;DHT22;10678;51.002;4.786;2023-06-10T11:36:22;42.70;39.90
21039;DHT22;10678;51.002;4.786;2023-06-10T11:38:49;42.90;43.40
21039;DHT22;10678;51.002;4.786;2023-06-10T11:41:15;43.20;44.70
21039;DHT22;10678;51.002;4.786;2023-06-10T11:43:43;43.50;43.40
21039;DHT22;10678;51.002;4.786;2023-06-10T11:46:12;43.50;39.90
21039;DHT22;10678;51.002;4.786;2023-06-10T11:48:38;43.40;38.50
21039;DHT22;10678;51.002;4.786;2023-06-10T11:51:07;43.20;40.60
21039;DHT22;10678;51.002;4.786;2023-06-10T11:53:33;43.10;41.20
21039;DHT22;10678;51.002;4.786;2023-06-10T11:55:59;43.00;40.00
21039;DHT22;10678;51.002;4.786;2023-06-10T11:58:25;42.70;38.40
21039;DHT22;10678;51.002;4.786;2023-06-10T12:00:52;42.80;42.10
21039;DHT22;10678;51.002;4.786;2023-06-10T12:03:24;43.30;40.00
21039;DHT22;10678;51.002;4.786;2023-06-10T12:08:24;44.30;40.00
21039;DHT22;10678;51.002;4.786;2023-06-10T12:10:50;44.60;39.50
21039;DHT22;10678;51.002;4.786;2023-06-10T12:13:15;45.00;39.40
21039;DHT22;10678;51.002;4.786;2023-06-10T12:15:43;45.40;36.60
21039;DHT22;10678;51.002;4.786;2023-06-10T12:18:24;45.20;36.90
21039;DHT22;10678;51.002;4.786;2023-06-10T12:20:51;45.00;37.60
21039;DHT22;10678;51.002;4.786;2023-06-10T12:23:18;44.60;37.20
21039;DHT22;10678;51.002;4.786;2023-06-10T12:25:54;44.70;35.10
21039;DHT22;10678;51.002;4.786;2023-06-10T12:28:25;44.70;34.80
21039;DHT22;10678;51.002;4.786;2023-06-10T12:30:51;44.60;35.50
21039;DHT22;10678;51.002;4.786;2023-06-10T12:33:21;44.60;35.10
21039;DHT22;10678;51.002;4.786;2023-06-10T12:35:56;44.80;37.10
21039;DHT22;10678;51.002;4.786;2023-06-10T12:38:23;45.60;36.70
21039;DHT22;10678;51.002;4.786;2023-06-10T12:41:02;46.40;36.60
21039;DHT22;10678;51.002;4.786;2023-06-10T12:43:31;47.10;34.80
21039;DHT22;10678;51.002;4.786;2023-06-10T12:46:08;47.40;35.90
21039;DHT22;10678;51.002;4.786;2023-06-10T12:48:35;46.90;33.20
21039;DHT22;10678;51.002;4.786;2023-06-10T12:51:02;47.00;37.00
21039;DHT22;10678;51.002;4.786;2023-06-10T12:53:27;46.90;33.20
21039;DHT22;10678;51.002;4.786;2023-06-10T12:55:53;46.70;34.50
21039;DHT22;10678;51.002;4.786;2023-06-10T12:58:19;46.00;35.30
21039;DHT22;10678;51.002;4.786;2023-06-10T13:00:45;45.50;36.20
21039;DHT22;10678;51.002;4.786;2023-06-10T13:03:11;44.20;36.80
21039;DHT22;10678;51.002;4.786;2023-06-10T13:05:37;43.90;37.70
21039;DHT22;10678;51.002;4.786;2023-06-10T13:08:08;44.00;38.90
21039;DHT22;10678;51.002;4.786;2023-06-10T13:10:35;44.20;37.90
21039;DHT22;10678;51.002;4.786;2023-06-10T13:13:02;43.90;37.80
21039;DHT22;10678;51.002;4.786;2023-06-10T13:15:31;43.90;35.30
21039;DHT22;10678;51.002;4.786;2023-06-10T13:17:57;44.00;38.20
21039;DHT22;10678;51.002;4.786;2023-06-10T13:20:23;44.20;36.30
21039;DHT22;10678;51.002;4.786;2023-06-10T13:22:49;44.00;35.50
21039;DHT22;10678;51.002;4.786;2023-06-10T13:25:15;43.90;37.00
21039;DHT22;10678;51.002;4.786;2023-06-10T13:27:41;43.70;35.00
21039;DHT22;10678;51.002;4.786;2023-06-10T13:30:08;43.60;37.20
21039;DHT22;10678;51.002;4.786;2023-06-10T13:32:37;43.20;36.00
21039;DHT22;10678;51.002;4.786;2023-06-10T13:35:04;42.60;36.40
21039;DHT22;10678;51.002;4.786;2023-06-10T13:37:29;41.80;39.00
21039;DHT22;10678;51.002;4.786;2023-06-10T13:39:55;41.40;39.60
21039;DHT22;10678;51.002;4.786;2023-06-10T13:42:21;41.00;38.30
21039;DHT22;10678;51.002;4.786;2023-06-10T13:44:47;40.80;37.30
21039;DHT22;10678;51.002;4.786;2023-06-10T13:47:14;40.40;41.50
21039;DHT22;10678;51.002;4.786;2023-06-10T13:49:40;39.80;38.40
21039;DHT22;10678;51.002;4.786;2023-06-10T13:52:06;39.50;42.10
21039;DHT22;10678;51.002;4.786;2023-06-10T13:54:32;39.20;40.20
21039;DHT22;10678;51.002;4.786;2023-06-10T13:56:58;39.00;40.90
21039;DHT22;10678;51.002;4.786;2023-06-10T13:59:25;38.80;42.80
21039;DHT22;10678;51.002;4.786;2023-06-10T14:01:51;38.50;44.30
21039;DHT22;10678;51.002;4.786;2023-06-10T14:04:17;38.50;42.10
21039;DHT22;10678;51.002;4.786;2023-06-10T14:06:42;38.30;42.10
21039;DHT22;10678;51.002;4.786;2023-06-10T14:09:09;38.10;41.60
21039;DHT22;10678;51.002;4.786;2023-06-10T14:11:34;37.80;41.30
21039;DHT22;10678;51.002;4.786;2023-06-10T14:14:00;37.60;41.00
21039;DHT22;10678;51.002;4.786;2023-06-10T14:16:26;37.20;40.90
21039;DHT22;10678;51.002;4.786;2023-06-10T14:18:52;36.90;43.00
21039;DHT22;10678;51.002;4.786;2023-06-10T14:21:18;36.60;43.20
21039;DHT22;10678;51.002;4.786;2023-06-10T14:23:44;36.40;44.10
21039;DHT22;10678;51.002;4.786;2023-06-10T14:26:10;36.20;45.60
21039;DHT22;10678;51.002;4.786;2023-06-10T14:28:35;36.00;46.00
21039;DHT22;10678;51.002;4.786;2023-06-10T14:31:01;35.90;46.30
21039;DHT22;10678;51.002;4.786;2023-06-10T14:33:27;35.80;44.10
21039;DHT22;10678;51.002;4.786;2023-06-10T14:35:52;35.80;43.90
21039;DHT22;10678;51.002;4.786;2023-06-10T14:38:18;35.60;43.80
21039;DHT22;10678;51.002;4.786;2023-06-10T14:40:44;35.40;42.50
21039;DHT22;10678;51.002;4.786;2023-06-10T14:43:09;35.20;42.90
21039;DHT22;10678;51.002;4.786;2023-06-10T14:45:44;35.20;43.70
21039;DHT22;10678;51.002;4.786;2023-06-10T14:48:10;34.90;44.70
21039;DHT22;10678;51.002;4.786;2023-06-10T14:50:37;34.50;43.10
21039;DHT22;10678;51.002;4.786;2023-06-10T14:53:03;34.20;43.30
21039;DHT22;10678;51.002;4.786;2023-06-10T14:55:28;34.10;45.70
21039;DHT22;10678;51.002;4.786;2023-06-10T14:57:54;34.10;43.20
21039;DHT22;10678;51.002;4.786;2023-06-10T15:00:21;34.10;42.80
21039;DHT22;10678;51.002;4.786;2023-06-10T15:02:49;33.90;45.90
21039;DHT22;10678;51.002;4.786;2023-06-10T15:05:15;33.90;43.70
21039;DHT22;10678;51.002;4.786;2023-06-10T15:07:41;34.00;44.30
21039;DHT22;10678;51.002;4.786;2023-06-10T15:10:07;34.00;44.60
21039;DHT22;10678;51.002;4.786;2023-06-10T15:12:34;33.90;44.50
21039;DHT22;10678;51.002;4.786;2023-06-10T15:14:59;33.80;45.70
21039;DHT22;10678;51.002;4.786;2023-06-10T15:17:25;33.60;46.40
21039;DHT22;10678;51.002;4.786;2023-06-10T15:19:51;33.50;44.60
21039;DHT22;10678;51.002;4.786;2023-06-10T15:22:16;33.50;45.00
21039;DHT22;10678;51.002;4.786;2023-06-10T15:24:42;33.40;44.70
21039;DHT22;10678;51.002;4.786;2023-06-10T15:27:08;33.30;47.20
21039;DHT22;10678;51.002;4.786;2023-06-10T15:29:33;33.30;45.50
21039;DHT22;10678;51.002;4.786;2023-06-10T15:31:59;33.30;45.80
21039;DHT22;10678;51.002;4.786;2023-06-10T15:34:25;33.20;47.80
21039;DHT22;10678;51.002;4.786;2023-06-10T15:36:50;33.20;46.20
21039;DHT22;10678;51.002;4.786;2023-06-10T15:39:16;33.30;46.10
21039;DHT22;10678;51.002;4.786;2023-06-10T15:41:41;33.30;47.60
21039;DHT22;10678;51.002;4.786;2023-06-10T15:44:07;33.30;45.70